Time;durP1;ratioP1;P1;durP2;ratioP2;P2;SDS_P1;SDS_P2;PMS_P1;PMS_P2;Temp;Humidity;BMP_temperature;BMP_pressure;BME280_temperature;BME280_humidity;BME280_pressure;Samples;Min_cycle;Max_cycle;Signal;HPM_P1;HPM_P2
2023/03/14 00:00:39;;;;;;;14.73;3.40;;;10.80;99.90;;;;;;4833615;29;20249;-64
2023/03/14 00:03:07;;;;;;;12.47;3.83;;;10.80;99.90;;;;;;4825902;29;20237;-64
2023/03/14 00:05:35;;;;;;;12.63;3.47;;;10.80;99.90;;;;;;4826064;29;20234;-64
2023/03/14 00:08:03;;;;;;;10.67;3.30;;;10.70;99.90;;;;;;4826187;29;20237;-64
2023/03/14 00:10:33;;;;;;;11.73;3.70;;;10.70;99.90;;;;;;4825704;29;20253;-64
2023/03/14 00:13:01;;;;;;;13.20;3.50;;;10.70;99.90;;;;;;4825848;29;20237;-64
2023/03/14 00:15:29;;;;;;;12.87;3.90;;;10.60;99.90;;;;;;4825801;29;20712;-64
2023/03/14 00:17:57;;;;;;;12.07;3.73;;;10.60;99.90;;;;;;4825780;29;20245;-64
2023/03/14 00:20:25;;;;;;;11.33;3.23;;;10.50;99.90;;;;;;4834784;29;20706;-64
2023/03/14 00:22:53;;;;;;;12.07;3.97;;;10.50;99.90;;;;;;4844272;29;20694;-64
2023/03/14 00:25:21;;;;;;;10.87;3.43;;;10.50;99.90;;;;;;4844214;29;20227;-64
2023/03/14 00:27:52;;;;;;;9.57;3.57;;;10.50;99.90;;;;;;4844413;29;20581;-64
2023/03/14 00:30:21;;;;;;;14.30;3.73;;;10.60;99.90;;;;;;4835904;29;20233;-65
2023/03/14 00:32:49;;;;;;;11.30;3.20;;;10.50;99.90;;;;;;4825678;29;20321;-64
2023/03/14 00:35:17;;;;;;;12.47;3.43;;;10.50;99.90;;;;;;4825870;29;20765;-64
2023/03/14 00:37:46;;;;;;;14.70;3.97;;;10.60;99.90;;;;;;4826199;29;20232;-65
2023/03/14 00:40:15;;;;;;;15.60;4.07;;;10.60;99.90;;;;;;4840812;29;20241;-65
2023/03/14 00:42:43;;;;;;;10.77;3.30;;;10.60;99.90;;;;;;4827633;29;20761;-65
2023/03/14 00:45:12;;;;;;;13.40;3.70;;;10.50;99.90;;;;;;4841654;29;20241;-65
2023/03/14 00:47:45;;;;;;;12.47;3.43;;;10.60;99.90;;;;;;4851961;29;20281;-64
2023/03/14 00:50:14;;;;;;;12.93;3.43;;;10.60;99.90;;;;;;4864211;29;20264;-66
2023/03/14 00:52:42;;;;;;;9.70;3.30;;;10.60;99.90;;;;;;4852050;29;20229;-64
2023/03/14 00:55:10;;;;;;;10.53;3.07;;;10.60;99.90;;;;;;4851062;29;20289;-66
2023/03/14 00:57:39;;;;;;;10.43;2.80;;;10.70;99.90;;;;;;4851122;29;20251;-65
2023/03/14 01:00:11;;;;;;;9.67;2.97;;;10.70;99.90;;;;;;4858515;29;20324;-65
2023/03/14 01:02:40;;;;;;;14.87;3.30;;;10.70;99.90;;;;;;4838912;29;20252;-65
2023/03/14 01:05:10;;;;;;;11.20;3.60;;;10.70;99.90;;;;;;4825198;29;20762;-64
2023/03/14 01:07:38;;;;;;;10.63;2.90;;;10.70;99.90;;;;;;4825167;29;20709;-64
2023/03/14 01:10:08;;;;;;;8.50;3.30;;;10.70;99.90;;;;;;4825274;29;20708;-64
2023/03/14 01:12:37;;;;;;;8.97;3.50;;;10.70;99.90;;;;;;4823764;29;20230;-64
2023/03/14 01:15:07;;;;;;;10.60;3.80;;;10.70;99.90;;;;;;4824836;29;20234;-65
2023/03/14 01:17:37;;;;;;;10.33;2.80;;;10.70;99.90;;;;;;4825672;29;20233;-64
2023/03/14 01:20:11;;;;;;;9.13;2.83;;;10.70;99.90;;;;;;4838039;29;20313;-64
2023/03/14 01:22:40;;;;;;;11.03;3.27;;;10.80;99.90;;;;;;4842812;29;20237;-64
2023/03/14 01:25:10;;;;;;;8.63;2.97;;;10.80;99.90;;;;;;4834291;29;20698;-64
2023/03/14 01:27:38;;;;;;;8.93;2.40;;;10.70;99.90;;;;;;4823413;29;20242;-64
2023/03/14 01:30:08;;;;;;;8.03;3.47;;;10.70;99.90;;;;;;4823365;29;20317;-64
2023/03/14 01:32:37;;;;;;;8.67;2.93;;;10.70;99.90;;;;;;4837976;29;20258;-64
2023/03/14 01:35:07;;;;;;;9.93;3.07;;;10.70;99.90;;;;;;4824648;29;20287;-64
2023/03/14 01:37:36;;;;;;;7.17;3.07;;;10.70;99.90;;;;;;4823148;29;20332;-64
2023/03/14 01:40:06;;;;;;;6.93;3.17;;;10.70;99.90;;;;;;4838365;29;20648;-64
2023/03/14 01:42:34;;;;;;;8.73;3.07;;;10.70;99.90;;;;;;4824385;29;20602;-64
2023/03/14 01:45:02;;;;;;;7.90;2.87;;;10.70;99.90;;;;;;4838399;29;20241;-64
2023/03/14 01:47:31;;;;;;;11.70;3.67;;;10.70;99.90;;;;;;4824321;29;20301;-64
2023/03/14 01:50:02;;;;;;;9.20;3.60;;;10.70;99.90;;;;;;4838924;29;20792;-64
2023/03/14 01:52:36;;;;;;;8.13;3.17;;;10.60;99.90;;;;;;4841040;29;20283;-64
2023/03/14 01:55:08;;;;;;;10.17;3.50;;;10.60;99.90;;;;;;4841213;29;20597;-63
2023/03/14 01:57:40;;;;;;;9.37;3.80;;;10.60;99.90;;;;;;4841861;29;20601;-64
2023/03/14 02:00:12;;;;;;;6.40;3.17;;;10.60;99.90;;;;;;4834862;29;20234;-64
2023/03/14 02:02:43;;;;;;;8.40;3.47;;;10.70;99.90;;;;;;4823753;29;20655;-64
2023/03/14 02:05:13;;;;;;;9.67;3.63;;;10.70;99.90;;;;;;4822963;29;20257;-64
2023/03/14 02:07:50;;;;;;;9.70;3.87;;;10.70;99.90;;;;;;4822864;29;20701;-64
2023/03/14 02:10:25;;;;;;;6.53;3.77;;;10.70;99.90;;;;;;4822933;29;20279;-64
2023/03/14 02:12:55;;;;;;;8.47;4.10;;;10.70;99.90;;;;;;4822924;29;20230;-64
2023/03/14 02:15:50;;;;;;;5.43;3.93;;;10.70;99.90;;;;;;4809989;29;20703;-64
2023/03/14 02:18:56;;;;;;;8.97;4.13;;;10.70;99.90;;;;;;4847064;29;20376;-64
2023/03/14 02:22:06;;;;;;;8.33;5.10;;;10.70;99.90;;;;;;4858444;29;20234;-64
2023/03/14 02:24:46;;;;;;;7.60;4.50;;;10.70;99.90;;;;;;4843977;29;20261;-64
2023/03/14 02:27:17;;;;;;;7.97;4.87;;;10.70;99.90;;;;;;4842609;29;20252;-64
2023/03/14 02:29:52;;;;;;;8.70;5.53;;;10.70;99.90;;;;;;4838350;29;20256;-64
2023/03/14 02:32:22;;;;;;;9.67;5.17;;;10.70;99.90;;;;;;4822223;29;20323;-64
2023/03/14 02:34:55;;;;;;;8.00;5.80;;;10.70;99.90;;;;;;4824064;29;20233;-64
2023/03/14 02:37:28;;;;;;;8.10;5.70;;;10.70;99.90;;;;;;4823814;29;20259;-64
2023/03/14 02:39:56;;;;;;;10.13;5.63;;;10.70;99.90;;;;;;4822815;29;20230;-64
2023/03/14 02:42:26;;;;;;;9.80;5.53;;;10.70;99.90;;;;;;4822508;29;20324;-65
2023/03/14 02:45:16;;;;;;;10.07;5.83;;;10.70;99.90;;;;;;4822549;29;20714;-64
2023/03/14 02:47:48;;;;;;;10.53;5.70;;;10.70;99.90;;;;;;4822174;29;20296;-64
2023/03/14 02:50:21;;;;;;;8.17;5.03;;;10.70;99.90;;;;;;4830863;29;20336;-64
2023/03/14 02:52:49;;;;;;;7.37;4.80;;;10.70;99.90;;;;;;4840180;29;20260;-64
2023/03/14 02:55:21;;;;;;;9.53;4.83;;;10.70;99.90;;;;;;4840556;29;20236;-65
2023/03/14 02:57:52;;;;;;;9.73;5.37;;;10.80;99.90;;;;;;4840416;29;20287;-64
2023/03/14 03:00:21;;;;;;;10.37;5.30;;;10.80;99.90;;;;;;4832378;29;20324;-64
2023/03/14 03:02:49;;;;;;;9.60;5.73;;;10.80;99.90;;;;;;4822145;29;20236;-64
2023/03/14 03:05:17;;;;;;;8.17;4.53;;;10.80;99.90;;;;;;4823803;29;20652;-64
2023/03/14 03:07:45;;;;;;;7.03;4.47;;;10.80;99.90;;;;;;4823377;29;20234;-64
2023/03/14 03:10:14;;;;;;;8.90;4.73;;;10.80;99.90;;;;;;4824946;29;20315;-64
2023/03/14 03:12:42;;;;;;;9.80;4.90;;;10.80;99.90;;;;;;4825742;29;20743;-65
2023/03/14 03:15:13;;;;;;;9.23;4.60;;;10.80;99.90;;;;;;4825522;29;20278;-64
2023/03/14 03:17:41;;;;;;;8.43;4.90;;;10.80;99.90;;;;;;4826617;29;20253;-64
2023/03/14 03:20:10;;;;;;;10.23;5.07;;;10.80;99.90;;;;;;4852553;29;20236;-64
2023/03/14 03:22:40;;;;;;;10.00;5.03;;;10.80;99.90;;;;;;4859064;29;20714;-64
2023/03/14 03:25:10;;;;;;;7.33;4.43;;;10.80;99.90;;;;;;4828537;29;20222;-64
2023/03/14 03:27:39;;;;;;;9.30;4.13;;;10.80;99.90;;;;;;4834303;29;20293;-64
2023/03/14 03:30:08;;;;;;;5.80;4.53;;;10.80;99.90;;;;;;4837537;29;20226;-64
2023/03/14 03:32:38;;;;;;;9.90;4.53;;;10.80;99.90;;;;;;4825169;29;20247;-64
2023/03/14 03:35:07;;;;;;;7.87;4.67;;;10.80;99.90;;;;;;4825181;29;20235;-64
2023/03/14 03:37:38;;;;;;;8.47;4.33;;;10.80;99.90;;;;;;4840331;29;20238;-64
2023/03/14 03:40:09;;;;;;;8.27;4.50;;;10.80;99.90;;;;;;4840435;29;20746;-64
2023/03/14 03:42:38;;;;;;;10.40;4.80;;;10.80;99.90;;;;;;4826478;29;20238;-64
2023/03/14 03:45:10;;;;;;;10.47;4.10;;;10.80;99.90;;;;;;4825106;29;20242;-64
2023/03/14 03:47:47;;;;;;;8.97;4.47;;;10.80;99.90;;;;;;4840207;29;20243;-64
2023/03/14 03:50:15;;;;;;;10.47;4.53;;;10.70;99.90;;;;;;4838314;29;20251;-64
2023/03/14 03:52:43;;;;;;;11.93;3.97;;;10.70;99.90;;;;;;4843111;29;21304;-64
2023/03/14 03:55:11;;;;;;;6.80;4.43;;;10.60;99.90;;;;;;4844610;29;20225;-64
2023/03/14 03:57:40;;;;;;;8.83;4.23;;;10.60;99.90;;;;;;4842980;29;20242;-64
2023/03/14 04:00:11;;;;;;;8.57;3.97;;;10.60;99.90;;;;;;4836903;29;20717;-64
2023/03/14 04:02:42;;;;;;;8.23;4.53;;;10.50;99.90;;;;;;4825723;29;20240;-64
2023/03/14 04:05:15;;;;;;;9.73;4.70;;;10.50;99.90;;;;;;4839933;29;20234;-64
2023/03/14 04:07:51;;;;;;;6.63;3.50;;;10.50;99.90;;;;;;4824876;29;20642;-63
2023/03/14 04:10:24;;;;;;;4.37;2.10;;;10.30;99.90;;;;;;4840056;29;20742;-64
2023/03/14 04:13:08;;;;;;;4.30;1.90;;;10.20;99.90;;;;;;4839922;29;20237;-63
2023/03/14 04:15:38;;;;;;;5.70;1.60;;;10.10;99.90;;;;;;4824359;29;20261;-63
2023/03/14 04:18:14;;;;;;;3.63;1.30;;;10.00;99.90;;;;;;4824307;29;20288;-64
2023/03/14 04:20:45;;;;;;;2.77;1.33;;;9.90;99.90;;;;;;4839914;29;20242;-64
2023/03/14 04:23:13;;;;;;;2.87;1.33;;;9.90;99.90;;;;;;4843930;29;20229;-64
2023/03/14 04:25:41;;;;;;;5.47;1.63;;;9.80;99.90;;;;;;4842627;29;20234;-64
2023/03/14 04:28:09;;;;;;;4.07;1.23;;;9.80;99.90;;;;;;4844159;29;20732;-64
2023/03/14 04:30:37;;;;;;;4.27;1.30;;;9.70;99.90;;;;;;4832133;29;20678;-64
2023/03/14 04:33:12;;;;;;;4.00;1.50;;;9.70;99.90;;;;;;4817700;29;20238;-64
2023/03/14 04:35:49;;;;;;;3.50;1.43;;;9.70;99.90;;;;;;4830501;29;20239;-64
2023/03/14 04:38:18;;;;;;;3.23;1.30;;;9.70;99.90;;;;;;4842369;29;20244;-64
2023/03/14 04:40:47;;;;;;;5.20;1.30;;;9.60;99.90;;;;;;4858015;29;20232;-64
2023/03/14 04:43:17;;;;;;;4.77;1.40;;;9.60;99.90;;;;;;4842365;29;20645;-64
2023/03/14 04:45:55;;;;;;;4.47;1.50;;;9.70;99.90;;;;;;4842412;29;20240;-63
2023/03/14 04:48:24;;;;;;;5.33;1.80;;;9.60;99.90;;;;;;4833279;29;20723;-64
2023/03/14 04:50:55;;;;;;;4.67;1.43;;;9.60;99.90;;;;;;4856666;29;20774;-64
2023/03/14 04:53:23;;;;;;;3.27;1.47;;;9.60;99.90;;;;;;4843597;29;20286;-64
2023/03/14 04:55:56;;;;;;;2.47;1.30;;;9.50;99.90;;;;;;4842325;29;20766;-64
2023/03/14 04:58:29;;;;;;;2.77;1.30;;;9.50;99.90;;;;;;4857426;29;20255;-64
2023/03/14 05:01:03;;;;;;;3.93;1.67;;;9.50;99.90;;;;;;4846683;29;20241;-64
2023/03/14 05:03:39;;;;;;;7.23;1.93;;;9.50;99.90;;;;;;4823686;29;20232;-64
2023/03/14 05:06:11;;;;;;;3.53;1.63;;;9.50;99.90;;;;;;4825337;29;20586;-64
2023/03/14 05:08:59;;;;;;;4.07;1.53;;;9.50;99.90;;;;;;4839111;29;20229;-64
2023/03/14 05:11:45;;;;;;;3.63;1.90;;;9.50;99.90;;;;;;4825129;29;20248;-64
2023/03/14 05:14:31;;;;;;;4.90;1.80;;;9.50;99.90;;;;;;4824778;29;20229;-64
2023/03/14 05:17:18;;;;;;;4.80;1.80;;;9.50;99.90;;;;;;4823717;29;20323;-64
2023/03/14 05:19:49;;;;;;;4.53;1.93;;;9.40;99.90;;;;;;4833752;29;20245;-64
2023/03/14 05:22:38;;;;;;;3.37;1.80;;;9.40;99.90;;;;;;4833069;29;20236;-64
2023/03/14 05:25:16;;;;;;;4.60;2.10;;;9.40;99.90;;;;;;4823565;29;20321;-64
2023/03/14 05:27:47;;;;;;;4.23;2.13;;;9.40;99.90;;;;;;4824977;29;20233;-64
2023/03/14 05:30:34;;;;;;;5.03;2.23;;;9.50;99.90;;;;;;4824558;29;20597;-64
2023/03/14 05:33:25;;;;;;;6.43;2.30;;;9.50;99.90;;;;;;4823891;29;20725;-63
2023/03/14 05:36:18;;;;;;;6.07;2.43;;;9.50;99.90;;;;;;4824852;29;20258;-64
2023/03/14 05:39:10;;;;;;;4.87;2.70;;;9.50;99.90;;;;;;4827101;29;20268;-64
2023/03/14 05:41:50;;;;;;;8.63;3.40;;;9.50;99.90;;;;;;4833728;29;20238;-64
2023/03/14 05:44:24;;;;;;;5.63;3.50;;;9.50;99.90;;;;;;4826100;29;20255;-64
2023/03/14 05:47:11;;;;;;;7.00;2.90;;;9.50;99.90;;;;;;4824978;29;20745;-64
2023/03/14 05:49:57;;;;;;;6.57;3.03;;;9.40;99.90;;;;;;4834149;29;20236;-64
2023/03/14 05:52:31;;;;;;;6.63;3.20;;;9.40;99.90;;;;;;4842627;29;20244;-64
2023/03/14 05:55:10;;;;;;;7.27;2.60;;;9.40;99.90;;;;;;4843060;29;20227;-64
2023/03/14 05:57:54;;;;;;;6.00;3.20;;;9.50;99.90;;;;;;4828023;29;20225;-64
2023/03/14 06:00:32;;;;;;;9.00;3.57;;;9.50;99.90;;;;;;4820783;29;20282;-64
2023/03/14 06:03:13;;;;;;;8.23;3.50;;;9.50;99.90;;;;;;4811999;29;20266;-64
2023/03/14 06:05:45;;;;;;;6.90;3.47;;;9.50;99.90;;;;;;4806132;29;20306;-64
2023/03/14 06:08:13;;;;;;;7.37;3.60;;;9.50;99.90;;;;;;4823492;29;20278;-64
2023/03/14 06:10:47;;;;;;;4.67;3.50;;;9.50;99.90;;;;;;4838002;29;20253;-64
2023/03/14 06:13:16;;;;;;;6.50;3.73;;;9.50;99.90;;;;;;4822914;29;20332;-64
2023/03/14 06:15:44;;;;;;;5.37;3.37;;;9.50;99.90;;;;;;4823896;29;20780;-64
2023/03/14 06:18:13;;;;;;;6.03;3.80;;;9.50;99.90;;;;;;4851807;29;20293;-63
2023/03/14 06:20:42;;;;;;;8.57;4.40;;;9.50;99.90;;;;;;4838210;29;20260;-64
2023/03/14 06:23:15;;;;;;;8.37;4.03;;;9.50;99.90;;;;;;4840929;29;20242;-64
2023/03/14 06:25:43;;;;;;;7.47;3.83;;;9.50;99.90;;;;;;4818664;29;20241;-64
2023/03/14 06:28:12;;;;;;;7.97;3.87;;;9.60;99.90;;;;;;4822763;29;20251;-64
2023/03/14 06:30:41;;;;;;;6.57;3.27;;;9.60;99.90;;;;;;4804898;29;20254;-64
2023/03/14 06:33:11;;;;;;;7.00;3.20;;;9.60;99.90;;;;;;4795506;29;20317;-63
2023/03/14 06:35:40;;;;;;;7.43;3.50;;;9.60;99.90;;;;;;4794741;29;20718;-64
2023/03/14 06:38:08;;;;;;;8.60;3.57;;;9.60;99.90;;;;;;4822394;29;20777;-64
2023/03/14 06:40:36;;;;;;;7.50;3.17;;;9.70;99.90;;;;;;4836053;29;20237;-64
2023/03/14 06:43:12;;;;;;;5.63;2.90;;;9.70;99.90;;;;;;4823593;29;20742;-64
2023/03/14 06:45:43;;;;;;;4.40;2.93;;;9.70;99.90;;;;;;4819172;29;20237;-64
2023/03/14 06:48:11;;;;;;;8.10;3.00;;;9.70;99.90;;;;;;4809088;29;20733;-64
2023/03/14 06:50:46;;;;;;;7.70;3.00;;;9.70;99.90;;;;;;4823610;29;20243;-63
2023/03/14 06:53:14;;;;;;;5.03;2.70;;;9.70;99.90;;;;;;4826956;29;20722;-63
2023/03/14 06:55:45;;;;;;;6.93;2.70;;;9.70;99.90;;;;;;4825897;29;20331;-63
2023/03/14 06:58:16;;;;;;;8.50;3.00;;;9.80;99.90;;;;;;4825986;29;20240;-63
2023/03/14 07:00:46;;;;;;;8.23;3.10;;;9.80;99.90;;;;;;4829763;29;20320;-64
2023/03/14 07:03:19;;;;;;;6.97;2.90;;;9.90;99.90;;;;;;4844229;29;20236;-63
2023/03/14 07:05:50;;;;;;;7.83;3.40;;;10.00;99.90;;;;;;4844100;29;20233;-63
2023/03/14 07:08:18;;;;;;;7.93;3.17;;;10.10;99.90;;;;;;4845312;29;20287;-64
2023/03/14 07:10:46;;;;;;;6.27;2.97;;;10.20;99.90;;;;;;4845159;29;20240;-63
2023/03/14 07:13:16;;;;;;;9.87;3.10;;;10.20;99.90;;;;;;4859846;29;20677;-63
2023/03/14 07:15:59;;;;;;;6.00;2.53;;;10.20;99.90;;;;;;4831313;29;20751;-63
2023/03/14 07:18:27;;;;;;;7.40;2.97;;;10.00;99.90;;;;;;4840565;29;20232;-63
2023/03/14 07:20:56;;;;;;;6.67;2.57;;;9.90;99.90;;;;;;4842899;29;20232;-64
2023/03/14 07:23:25;;;;;;;4.77;2.67;;;9.90;99.90;;;;;;4845100;29;20314;-63
2023/03/14 07:25:54;;;;;;;9.83;2.80;;;9.80;99.90;;;;;;4843847;29;20232;-63
2023/03/14 07:28:27;;;;;;;6.30;2.83;;;9.80;99.90;;;;;;4843684;29;20236;-63
2023/03/14 07:31:09;;;;;;;7.13;2.57;;;9.80;99.90;;;;;;4845586;29;20320;-63
2023/03/14 07:33:39;;;;;;;7.70;3.20;;;9.70;99.90;;;;;;4825123;29;20251;-64
2023/03/14 07:36:08;;;;;;;5.60;2.70;;;9.70;99.90;;;;;;4825184;29;20234;-64
2023/03/14 07:38:36;;;;;;;6.80;2.63;;;9.70;99.90;;;;;;4825049;29;20254;-64
2023/03/14 07:41:14;;;;;;;7.00;2.63;;;9.80;99.90;;;;;;4826612;29;20236;-64
2023/03/14 07:43:51;;;;;;;6.10;2.80;;;9.90;99.90;;;;;;4825013;29;20290;-64
2023/03/14 07:46:21;;;;;;;6.80;2.90;;;10.00;99.90;;;;;;4826147;29;20233;-64
2023/03/14 07:48:50;;;;;;;8.17;2.80;;;10.00;99.90;;;;;;4832156;29;20252;-64
2023/03/14 07:51:18;;;;;;;7.30;2.93;;;10.00;99.90;;;;;;4844281;29;20247;-63
2023/03/14 07:53:46;;;;;;;7.07;3.00;;;10.10;99.90;;;;;;4826767;29;20237;-64
2023/03/14 07:56:14;;;;;;;5.83;2.47;;;10.10;99.90;;;;;;4825877;29;20763;-64
2023/03/14 07:58:42;;;;;;;5.90;2.60;;;10.20;99.90;;;;;;4826362;29;20240;-64
2023/03/14 08:01:12;;;;;;;6.20;2.60;;;10.20;99.90;;;;;;4825946;29;20744;-64
2023/03/14 08:03:40;;;;;;;6.87;2.50;;;10.20;99.90;;;;;;4826169;29;20245;-63
2023/03/14 08:06:08;;;;;;;4.83;2.37;;;10.30;99.90;;;;;;4826557;29;20748;-64
2023/03/14 08:08:36;;;;;;;5.77;2.50;;;10.30;99.90;;;;;;4826667;29;20253;-64
2023/03/14 08:11:06;;;;;;;9.47;2.63;;;10.20;99.90;;;;;;4826542;29;20762;-64
2023/03/14 08:13:34;;;;;;;4.67;2.50;;;10.20;99.90;;;;;;4826874;29;20267;-64
2023/03/14 08:16:02;;;;;;;8.40;2.57;;;10.20;99.90;;;;;;4827085;29;20692;-65
2023/03/14 08:18:31;;;;;;;6.67;2.30;;;10.10;99.90;;;;;;4832486;29;20269;-65
2023/03/14 08:20:59;;;;;;;5.43;2.80;;;10.10;99.90;;;;;;4846893;29;20815;-66
2023/03/14 08:23:28;;;;;;;5.63;2.67;;;10.20;99.90;;;;;;4851580;29;20720;-64
2023/03/14 08:25:56;;;;;;;5.53;2.60;;;10.10;99.90;;;;;;4854565;29;20304;-65
2023/03/14 08:28:24;;;;;;;5.63;3.30;;;10.10;99.90;;;;;;4848146;29;20314;-65
2023/03/14 08:30:55;;;;;;;6.57;2.80;;;10.10;99.90;;;;;;4852052;29;20237;-65
2023/03/14 08:33:23;;;;;;;9.77;3.23;;;10.10;99.90;;;;;;4849486;29;20225;-65
2023/03/14 08:35:54;;;;;;;7.40;2.97;;;10.10;99.90;;;;;;4846956;29;20587;-64
2023/03/14 08:38:22;;;;;;;6.90;3.37;;;10.00;99.90;;;;;;4841165;29;20684;-64
2023/03/14 08:40:57;;;;;;;9.57;3.33;;;10.00;99.90;;;;;;4844360;29;20249;-65
2023/03/14 08:43:25;;;;;;;7.27;3.60;;;10.00;99.90;;;;;;4843965;29;20649;-64
2023/03/14 08:45:54;;;;;;;7.10;3.57;;;9.90;99.90;;;;;;4843698;29;20233;-64
2023/03/14 08:48:22;;;;;;;9.50;3.63;;;10.00;99.90;;;;;;4840880;29;20264;-64
2023/03/14 08:50:50;;;;;;;11.00;4.10;;;10.00;99.90;;;;;;4843270;29;20243;-64
2023/03/14 08:53:20;;;;;;;10.73;3.73;;;10.00;99.90;;;;;;4843964;29;20723;-64
2023/03/14 08:55:52;;;;;;;7.70;3.40;;;10.00;99.90;;;;;;4843872;29;20255;-64
2023/03/14 08:58:21;;;;;;;5.77;3.27;;;10.00;99.90;;;;;;4843387;29;20247;-64
2023/03/14 09:00:49;;;;;;;7.60;3.20;;;10.00;99.90;;;;;;4842848;29;20245;-64
2023/03/14 09:03:17;;;;;;;8.27;3.43;;;10.00;99.90;;;;;;4830556;29;20238;-64
2023/03/14 09:05:46;;;;;;;9.37;3.27;;;10.00;99.90;;;;;;4824670;29;20281;-63
2023/03/14 09:08:14;;;;;;;7.10;3.83;;;10.00;99.90;;;;;;4821543;29;20609;-64
2023/03/14 09:10:43;;;;;;;9.07;4.13;;;10.00;99.90;;;;;;4835903;29;20232;-63
2023/03/14 09:13:11;;;;;;;7.90;3.43;;;10.00;99.90;;;;;;4834820;29;20225;-64
2023/03/14 09:15:42;;;;;;;7.03;3.27;;;10.00;99.90;;;;;;4831621;29;20593;-64
2023/03/14 09:18:10;;;;;;;7.60;3.17;;;9.90;99.90;;;;;;4833812;29;20622;-63
2023/03/14 09:20:38;;;;;;;2.10;0.90;;;9.80;99.90;;;;;;4841106;29;20236;-63
2023/03/14 09:23:06;;;;;;;2.60;0.80;;;8.90;99.90;;;;;;4833837;29;20237;-63
2023/03/14 09:25:34;;;;;;;3.63;0.93;;;8.10;99.90;;;;;;4824897;29;20238;-63
2023/03/14 09:28:03;;;;;;;2.53;1.00;;;7.80;99.90;;;;;;4834654;29;20230;-63
2023/03/14 09:30:32;;;;;;;3.00;1.07;;;7.50;99.90;;;;;;4842501;29;20728;-63
2023/03/14 09:33:00;;;;;;;3.03;0.60;;;7.40;99.90;;;;;;4843117;29;20703;-64
2023/03/14 09:35:28;;;;;;;3.03;1.00;;;7.10;99.90;;;;;;4842871;29;20645;-63
2023/03/14 09:37:56;;;;;;;3.70;0.80;;;7.00;99.90;;;;;;4842964;29;20235;-64
2023/03/14 09:40:25;;;;;;;1.70;0.73;;;6.90;99.90;;;;;;4842879;29;20700;-64
2023/03/14 09:42:55;;;;;;;4.67;0.73;;;6.80;99.90;;;;;;4842950;29;20238;-64
2023/03/14 09:45:28;;;;;;;4.00;0.73;;;6.60;99.90;;;;;;4842681;29;20644;-64
2023/03/14 09:47:58;;;;;;;2.87;0.70;;;6.60;99.90;;;;;;4840683;29;20717;-64
2023/03/14 09:50:33;;;;;;;1.80;0.60;;;6.60;99.90;;;;;;4842521;29;20232;-64
2023/03/14 09:53:07;;;;;;;2.23;0.53;;;6.40;99.90;;;;;;4837780;29;20231;-64
2023/03/14 09:55:35;;;;;;;2.77;0.53;;;6.20;99.90;;;;;;4806017;29;20228;-64
2023/03/14 09:58:12;;;;;;;1.43;0.40;;;6.00;99.90;;;;;;4806146;29;20323;-64
2023/03/14 10:00:41;;;;;;;0.93;0.33;;;5.80;99.90;;;;;;4807752;29;20323;-64
2023/03/14 10:03:30;;;;;;;0.73;0.40;;;5.60;99.90;;;;;;4842671;29;20259;-64
2023/03/14 10:05:58;;;;;;;1.77;0.70;;;5.60;99.90;;;;;;4836832;29;20235;-64
2023/03/14 10:08:26;;;;;;;1.47;0.87;;;5.60;99.90;;;;;;4833182;29;20242;-64
2023/03/14 10:10:56;;;;;;;1.87;0.60;;;5.50;99.90;;;;;;4842169;29;20231;-64
2023/03/14 10:13:25;;;;;;;1.27;0.63;;;5.40;99.90;;;;;;4842272;29;20227;-64
2023/03/14 10:15:59;;;;;;;0.77;0.40;;;5.40;99.90;;;;;;4830449;29;20704;-64
2023/03/14 10:18:30;;;;;;;1.23;0.40;;;5.40;99.90;;;;;;4839070;29;20242;-64
2023/03/14 10:21:07;;;;;;;0.70;0.43;;;5.50;99.90;;;;;;4842057;29;20719;-64
2023/03/14 10:23:38;;;;;;;0.50;0.50;;;5.40;99.90;;;;;;4841975;29;20235;-64
2023/03/14 10:26:09;;;;;;;0.60;0.60;;;5.40;99.90;;;;;;4842396;29;20242;-64
2023/03/14 10:28:43;;;;;;;2.07;0.87;;;5.40;99.90;;;;;;4830547;29;20250;-64
2023/03/14 10:31:13;;;;;;;1.73;0.90;;;5.30;99.90;;;;;;4841908;29;20640;-64
2023/03/14 10:33:41;;;;;;;0.97;0.87;;;5.30;99.90;;;;;;4831984;29;20286;-64
2023/03/14 10:36:20;;;;;;;2.30;0.83;;;5.20;99.90;;;;;;4823111;29;20327;-63
2023/03/14 10:38:49;;;;;;;1.50;0.80;;;5.10;99.90;;;;;;4840370;29;20715;-64
2023/03/14 10:41:20;;;;;;;1.43;0.90;;;5.10;99.90;;;;;;4841881;29;20249;-64
2023/03/14 10:43:52;;;;;;;1.03;0.40;;;5.20;99.90;;;;;;4840965;29;20684;-64
2023/03/14 10:46:24;;;;;;;1.33;0.50;;;5.20;99.90;;;;;;4831300;29;20830;-64
2023/03/14 10:49:28;;;;;;;1.07;0.40;;;5.20;99.90;;;;;;4829055;29;20247;-64
2023/03/14 10:51:56;;;;;;;0.73;0.40;;;5.20;99.90;;;;;;4841601;29;20231;-64
2023/03/14 10:54:24;;;;;;;3.13;0.60;;;5.20;99.90;;;;;;4841748;29;20250;-64
2023/03/14 10:57:00;;;;;;;0.50;0.43;;;5.30;99.90;;;;;;4841826;29;20231;-64
2023/03/14 10:59:34;;;;;;;2.80;0.60;;;5.20;99.90;;;;;;4841604;29;20292;-63
2023/03/14 11:02:21;;;;;;;0.73;0.30;;;5.20;99.90;;;;;;4827520;29;20258;-64
2023/03/14 11:05:04;;;;;;;1.40;0.37;;;5.30;99.90;;;;;;4839783;29;20335;-63
2023/03/14 11:07:39;;;;;;;0.87;0.50;;;5.40;99.90;;;;;;4841377;29;20234;-64
2023/03/14 11:10:14;;;;;;;2.20;0.50;;;5.40;99.90;;;;;;4830662;29;20476;-64
2023/03/14 11:12:52;;;;;;;2.27;0.50;;;5.50;99.90;;;;;;4823360;29;20900;-64
2023/03/14 11:15:26;;;;;;;0.80;0.43;;;5.40;99.90;;;;;;4814402;29;20236;-64
2023/03/14 11:18:13;;;;;;;2.13;1.00;;;5.40;99.90;;;;;;4807571;29;20233;-64
2023/03/14 11:20:47;;;;;;;3.70;0.60;;;5.40;99.90;;;;;;4841200;29;20250;-64
2023/03/14 11:23:21;;;;;;;3.40;0.60;;;5.40;99.90;;;;;;4841812;29;20234;-63
2023/03/14 11:26:00;;;;;;;1.87;0.57;;;5.30;99.90;;;;;;4825489;29;20591;-64
2023/03/14 11:28:36;;;;;;;4.37;0.90;;;5.30;99.90;;;;;;4823414;29;20485;-63
2023/03/14 11:31:12;;;;;;;6.90;1.07;;;5.30;99.90;;;;;;4828020;29;20571;-63
2023/03/14 11:33:49;;;;;;;4.10;0.80;;;5.30;99.90;;;;;;4841770;29;20610;-63
2023/03/14 11:36:22;;;;;;;5.80;1.43;;;5.30;99.90;;;;;;4832584;29;20604;-63
2023/03/14 11:38:52;;;;;;;7.00;0.90;;;5.30;99.90;;;;;;4832446;29;20469;-63
2023/03/14 11:41:24;;;;;;;4.87;1.50;;;5.40;99.90;;;;;;4833920;29;20660;-63
2023/03/14 11:43:56;;;;;;;4.57;0.87;;;5.50;99.90;;;;;;4844195;29;20844;-64
2023/03/14 11:46:29;;;;;;;4.17;0.77;;;5.60;99.90;;;;;;4831811;29;20541;-63
2023/03/14 11:49:04;;;;;;;3.90;1.23;;;5.60;99.90;;;;;;4836962;29;20725;-63
2023/03/14 11:51:36;;;;;;;7.53;1.37;;;5.60;99.90;;;;;;4834644;29;20246;-64
2023/03/14 11:54:15;;;;;;;8.10;1.10;;;5.70;99.90;;;;;;4840084;29;21037;-64
2023/03/14 11:56:51;;;;;;;6.73;1.00;;;5.70;99.90;;;;;;4830929;29;20497;-63
2023/03/14 11:59:26;;;;;;;9.53;1.40;;;5.70;99.90;;;;;;4830279;29;20468;-64
2023/03/14 12:01:58;;;;;;;6.77;1.40;;;5.70;99.90;;;;;;4833844;29;20698;-64
2023/03/14 12:04:44;;;;;;;4.93;1.20;;;5.60;99.90;;;;;;4840526;29;20580;-63
2023/03/14 12:07:20;;;;;;;9.73;1.80;;;5.60;99.90;;;;;;4832096;29;20260;-63
2023/03/14 12:09:51;;;;;;;9.17;1.63;;;5.60;99.90;;;;;;4835123;29;20745;-63
2023/03/14 12:12:23;;;;;;;12.10;1.73;;;5.60;99.90;;;;;;4836507;29;20247;-63
2023/03/14 12:14:56;;;;;;;12.47;1.67;;;5.60;99.90;;;;;;4825814;29;20231;-64
2023/03/14 12:17:28;;;;;;;12.97;2.03;;;5.60;99.90;;;;;;4824749;29;20267;-64
2023/03/14 12:20:07;;;;;;;11.17;1.97;;;5.50;99.90;;;;;;4834301;29;20238;-64
2023/03/14 12:22:37;;;;;;;14.30;2.57;;;5.50;99.90;;;;;;4837159;29;20317;-64
2023/03/14 12:25:14;;;;;;;19.73;2.43;;;5.50;99.90;;;;;;4840173;29;20226;-64
2023/03/14 12:27:46;;;;;;;10.20;2.43;;;5.50;99.90;;;;;;4838449;29;20249;-64
2023/03/14 12:30:27;;;;;;;16.20;2.20;;;5.60;99.90;;;;;;4835024;29;20323;-64
2023/03/14 12:33:23;;;;;;;11.07;2.00;;;5.70;99.90;;;;;;4830835;29;20228;-64
2023/03/14 12:35:53;;;;;;;17.47;2.43;;;5.70;99.90;;;;;;4828489;29;20239;-64
2023/03/14 12:38:30;;;;;;;14.53;2.00;;;5.80;99.90;;;;;;4835885;29;20587;-64
2023/03/14 12:41:03;;;;;;;17.27;1.90;;;5.90;99.90;;;;;;4828220;29;20235;-64
2023/03/14 12:43:34;;;;;;;11.60;2.27;;;5.90;99.90;;;;;;4830736;29;20669;-64
2023/03/14 12:46:16;;;;;;;11.87;2.13;;;5.90;99.90;;;;;;4837636;29;20571;-64
2023/03/14 12:48:46;;;;;;;10.13;1.90;;;6.00;99.90;;;;;;4830275;29;20245;-64
2023/03/14 12:51:17;;;;;;;7.73;1.57;;;6.10;99.90;;;;;;4824149;29;20593;-64
2023/03/14 12:53:59;;;;;;;10.97;2.00;;;6.10;99.90;;;;;;4826247;29;20743;-65
2023/03/14 12:56:46;;;;;;;8.50;1.87;;;6.30;99.90;;;;;;4839591;29;20240;-63
2023/03/14 12:59:30;;;;;;;9.37;1.47;;;6.30;99.90;;;;;;4831282;29;21129;-64
2023/03/14 13:02:03;;;;;;;6.70;1.13;;;6.30;99.90;;;;;;4830569;29;20273;-63
2023/03/14 13:04:36;;;;;;;8.80;1.70;;;6.40;99.90;;;;;;4834440;29;20728;-64
2023/03/14 13:07:13;;;;;;;11.13;1.53;;;6.30;99.90;;;;;;4831625;29;20235;-64
2023/03/14 13:10:17;;;;;;;6.83;1.30;;;6.40;99.90;;;;;;4821649;29;20332;-64
2023/03/14 13:12:50;;;;;;;16.13;2.20;;;6.30;99.90;;;;;;4823943;29;20235;-63
2023/03/14 13:15:25;;;;;;;8.33;1.70;;;6.20;99.90;;;;;;4822435;29;20263;-64
2023/03/14 13:17:57;;;;;;;5.97;1.43;;;6.20;99.90;;;;;;4822460;29;20240;-63